createdAt,value
2016-08-18T00:00:27.760Z,957.24
2016-08-18T00:01:27.778Z,957.22
2016-08-18T00:02:27.776Z,957.23
2016-08-18T00:03:27.790Z,957.23
2016-08-18T00:04:27.797Z,957.2
2016-08-18T00:05:27.805Z,957.18
2016-08-18T00:06:27.808Z,957.17
2016-08-18T00:07:27.818Z,957.18
2016-08-18T00:08:27.817Z,957.14
2016-08-18T00:09:27.832Z,957.13
2016-08-18T00:10:27.840Z,957.15
2016-08-18T00:11:27.838Z,957.14
2016-08-18T00:12:27.853Z,957.15
2016-08-18T00:13:27.852Z,957.16
2016-08-18T00:14:27.868Z,957.15
2016-08-18T00:15:27.866Z,957.14
2016-08-18T00:16:27.880Z,957.14
2016-08-18T00:17:27.886Z,957.16
2016-08-18T00:18:27.887Z,957.15
2016-08-18T00:19:27.892Z,957.16
2016-08-18T00:20:27.899Z,957.12
2016-08-18T00:21:27.915Z,957.15
2016-08-18T00:22:27.913Z,957.14
2016-08-18T00:23:27.920Z,957.08
2016-08-18T00:24:27.938Z,957.12
2016-08-18T00:25:27.942Z,957.14
2016-08-18T00:26:27.949Z,957.12
2016-08-18T00:27:27.972Z,957.16
2016-08-18T00:28:27.965Z,957.12
2016-08-18T00:29:27.962Z,957.13
2016-08-18T00:30:27.978Z,957.09
2016-08-18T00:31:27.980Z,957.09
2016-08-18T00:32:27.985Z,957.09
2016-08-18T00:33:27.992Z,957.08
2016-08-18T00:34:27.999Z,957.08
2016-08-18T00:35:28.010Z,957.05
2016-08-18T00:36:28.010Z,957.05
2016-08-18T00:37:28.017Z,957.09
2016-08-18T00:38:28.023Z,957.1
2016-08-18T00:39:28.039Z,957.06
2016-08-18T00:40:28.046Z,957.04
2016-08-18T00:41:28.054Z,957.04
2016-08-18T00:42:28.063Z,956.97
2016-08-18T00:43:28.068Z,956.96
2016-08-18T00:44:28.066Z,956.97
2016-08-18T00:45:28.080Z,956.95
2016-08-18T00:46:28.079Z,956.95
2016-08-18T00:47:28.086Z,956.93
2016-08-18T00:48:28.094Z,956.91
2016-08-18T00:49:28.103Z,956.91
2016-08-18T00:50:28.115Z,956.93
2016-08-18T00:51:28.113Z,956.92
2016-08-18T00:52:28.127Z,956.93
2016-08-18T00:53:28.132Z,956.89
2016-08-18T00:54:28.141Z,956.93
2016-08-18T00:55:28.148Z,956.93
2016-08-18T00:56:28.157Z,956.89
2016-08-18T00:57:28.154Z,956.93
2016-08-18T00:58:28.169Z,956.94
2016-08-18T00:59:28.178Z,956.93
2016-08-18T01:00:28.197Z,956.97
2016-08-18T01:01:28.190Z,957.01
2016-08-18T01:02:28.190Z,957
2016-08-18T01:03:28.194Z,957.03
2016-08-18T01:04:28.205Z,956.98
2016-08-18T01:05:28.211Z,957.04
2016-08-18T01:06:28.214Z,957.08
2016-08-18T01:07:28.223Z,957
2016-08-18T01:08:28.230Z,957.02
2016-08-18T01:09:28.240Z,957.01
2016-08-18T01:10:28.250Z,957
2016-08-18T01:11:28.258Z,957.04
2016-08-18T01:12:28.258Z,956.99
2016-08-18T01:13:28.263Z,956.94
2016-08-18T01:14:28.275Z,956.95
2016-08-18T01:15:28.285Z,957.01
2016-08-18T01:16:28.283Z,957.01
2016-08-18T01:17:28.292Z,956.99
2016-08-18T01:18:28.306Z,957
2016-08-18T01:19:28.304Z,957
2016-08-18T01:20:28.315Z,956.98
2016-08-18T01:21:28.316Z,956.98
2016-08-18T01:22:28.331Z,957.05
2016-08-18T01:23:28.330Z,957.06
2016-08-18T01:24:28.350Z,957.08
2016-08-18T01:25:28.343Z,957.09
2016-08-18T01:26:28.358Z,957.12
2016-08-18T01:27:28.359Z,957.17
2016-08-18T01:28:28.364Z,957.14
2016-08-18T01:29:28.375Z,957.13
2016-08-18T01:30:28.384Z,957.1
2016-08-18T01:31:28.388Z,957.15
2016-08-18T01:32:28.396Z,957.11
2016-08-18T01:33:28.397Z,957.12
2016-08-18T01:34:28.408Z,957.1
2016-08-18T01:35:28.410Z,957.14
2016-08-18T01:36:28.417Z,957.12
2016-08-18T01:37:28.430Z,957.09
2016-08-18T01:38:28.439Z,957.05
2016-08-18T01:39:28.438Z,957.08
2016-08-18T01:40:28.443Z,957.1
2016-08-18T01:41:28.458Z,957.13
2016-08-18T01:42:28.456Z,957.11
2016-08-18T01:43:28.463Z,957.13
2016-08-18T01:44:28.479Z,957.08
2016-08-18T01:45:28.482Z,957.13
2016-08-18T01:46:28.491Z,957.09
2016-08-18T01:47:28.491Z,957.11
2016-08-18T01:48:28.497Z,957.09
2016-08-18T01:49:28.502Z,957.07
2016-08-18T01:50:28.517Z,957.05
2016-08-18T01:51:28.515Z,957.04
2016-08-18T01:52:28.529Z,957.06
2016-08-18T01:53:28.536Z,957.05
2016-08-18T01:54:28.539Z,957.07
2016-08-18T01:55:28.549Z,957.03
2016-08-18T01:56:28.555Z,957.05
2016-08-18T01:57:28.560Z,957.02
2016-08-18T01:58:28.566Z,956.97
2016-08-18T01:59:28.573Z,957.01
2016-08-18T02:00:28.579Z,957
2016-08-18T02:01:28.588Z,956.97
2016-08-18T02:02:28.596Z,956.95
2016-08-18T02:03:28.596Z,956.96
2016-08-18T02:04:28.601Z,956.95
2016-08-18T02:05:28.614Z,956.95
2016-08-18T02:06:28.615Z,956.89
2016-08-18T02:07:28.638Z,956.89
2016-08-18T02:08:28.635Z,956.87
2016-08-18T02:09:28.640Z,956.85
2016-08-18T02:10:28.641Z,956.84
2016-08-18T02:11:28.654Z,956.86
2016-08-18T02:12:28.658Z,956.84
2016-08-18T02:13:28.668Z,956.81
2016-08-18T02:14:28.675Z,956.82
2016-08-18T02:15:28.680Z,956.86
2016-08-18T02:16:28.679Z,956.83
2016-08-18T02:17:28.696Z,956.81
2016-08-18T02:18:28.701Z,956.8
2016-08-18T02:19:28.708Z,956.78
2016-08-18T02:20:28.713Z,956.78
2016-08-18T02:21:28.721Z,956.79
2016-08-18T02:22:28.723Z,956.73
2016-08-18T02:23:28.737Z,956.74
2016-08-18T02:24:28.740Z,956.77
2016-08-18T02:25:28.745Z,956.73
2016-08-18T02:26:28.749Z,956.7
2016-08-18T02:27:28.751Z,956.68
2016-08-18T02:28:28.763Z,956.65
2016-08-18T02:29:28.766Z,956.68
2016-08-18T02:30:28.770Z,956.7
2016-08-18T02:31:28.782Z,956.65
2016-08-18T02:32:28.791Z,956.66
2016-08-18T02:33:28.790Z,956.69
2016-08-18T02:34:28.795Z,956.64
2016-08-18T02:35:28.809Z,956.64
2016-08-18T02:36:28.816Z,956.67
2016-08-18T02:37:28.817Z,956.64
2016-08-18T02:38:28.830Z,956.67
2016-08-18T02:39:28.829Z,956.68
2016-08-18T02:40:28.842Z,956.7
2016-08-18T02:41:28.840Z,956.7
2016-08-18T02:42:28.858Z,956.72
2016-08-18T02:43:28.858Z,956.71
2016-08-18T02:44:28.862Z,956.71
2016-08-18T02:45:28.870Z,956.75
2016-08-18T02:46:28.874Z,956.76
2016-08-18T02:47:28.889Z,956.77
2016-08-18T02:48:28.894Z,956.7
2016-08-18T02:49:28.899Z,956.7
2016-08-18T02:50:28.908Z,956.69
2016-08-18T02:51:28.912Z,956.68
2016-08-18T02:52:28.916Z,956.65
2016-08-18T02:53:28.927Z,956.66
2016-08-18T02:54:28.926Z,956.6
2016-08-18T02:55:28.930Z,956.61
2016-08-18T02:56:28.938Z,956.6
2016-08-18T02:57:28.952Z,956.61
2016-08-18T02:58:28.951Z,956.6
2016-08-18T02:59:28.964Z,956.6
2016-08-18T03:00:28.964Z,956.59
2016-08-18T03:01:28.980Z,956.59
2016-08-18T03:02:28.977Z,956.56
2016-08-18T03:03:28.984Z,956.55
2016-08-18T03:04:28.996Z,956.51
2016-08-18T03:05:29.004Z,956.51
2016-08-18T03:06:29.002Z,956.55
2016-08-18T03:07:29.012Z,956.52
2016-08-18T03:08:29.014Z,956.53
2016-08-18T03:09:29.024Z,956.5
2016-08-18T03:10:29.035Z,956.45
2016-08-18T03:11:29.041Z,956.49
2016-08-18T03:12:29.043Z,956.46
2016-08-18T03:13:29.056Z,956.47
2016-08-18T03:14:29.056Z,956.46
2016-08-18T03:15:29.070Z,956.44
2016-08-18T03:16:29.074Z,956.41
2016-08-18T03:17:29.075Z,956.43
2016-08-18T03:18:29.089Z,956.44
2016-08-18T03:19:29.093Z,956.41
2016-08-18T03:20:29.094Z,956.4
2016-08-18T03:21:29.100Z,956.35
2016-08-18T03:22:29.105Z,956.36
2016-08-18T03:23:29.119Z,956.36
2016-08-18T03:24:29.121Z,956.34
2016-08-18T03:25:29.128Z,956.32
2016-08-18T03:26:29.134Z,956.37
2016-08-18T03:27:29.149Z,956.38
2016-08-18T03:28:29.144Z,956.39
2016-08-18T03:29:29.154Z,956.36
2016-08-18T03:30:29.162Z,956.38
2016-08-18T03:31:29.166Z,956.35
2016-08-18T03:32:29.178Z,956.36
2016-08-18T03:33:29.178Z,956.38
2016-08-18T03:34:29.192Z,956.38
2016-08-18T03:35:29.192Z,956.41
2016-08-18T03:36:29.197Z,956.44
2016-08-18T03:37:29.208Z,956.43
2016-08-18T03:38:29.218Z,956.39
2016-08-18T03:39:29.221Z,956.43
2016-08-18T03:40:29.226Z,956.4
2016-08-18T03:41:29.228Z,956.43
2016-08-18T03:42:29.244Z,956.45
2016-08-18T03:43:29.250Z,956.46
2016-08-18T03:44:29.248Z,956.48
2016-08-18T03:45:29.261Z,956.41
2016-08-18T03:46:29.268Z,956.46
2016-08-18T03:47:29.267Z,956.47
2016-08-18T03:48:29.276Z,956.45
2016-08-18T03:49:29.286Z,956.4
2016-08-18T03:50:29.292Z,956.41
2016-08-18T03:51:29.294Z,956.43
2016-08-18T03:52:29.306Z,956.48
2016-08-18T03:53:29.309Z,956.46
2016-08-18T03:54:29.312Z,956.45
2016-08-18T03:55:29.325Z,956.44
2016-08-18T03:56:29.326Z,956.42
2016-08-18T03:57:29.335Z,956.36
2016-08-18T03:58:29.344Z,956.37
2016-08-18T03:59:29.350Z,956.39
2016-08-18T04:00:29.355Z,956.41
2016-08-18T04:01:29.362Z,956.4
2016-08-18T04:02:29.364Z,956.39
2016-08-18T04:03:29.377Z,956.35
2016-08-18T04:04:29.383Z,956.38
2016-08-18T04:05:29.387Z,956.34
2016-08-18T04:06:29.388Z,956.34
2016-08-18T04:07:29.396Z,956.36
2016-08-18T04:08:29.408Z,956.33
2016-08-18T04:09:29.408Z,956.32
2016-08-18T04:10:29.415Z,956.35
2016-08-18T04:11:29.428Z,956.33
2016-08-18T04:12:29.427Z,956.32
2016-08-18T04:13:29.436Z,956.29
2016-08-18T04:14:29.438Z,956.33
2016-08-18T04:15:29.452Z,956.32
2016-08-18T04:16:29.451Z,956.34
2016-08-18T04:17:29.466Z,956.35
2016-08-18T04:18:29.465Z,956.36
2016-08-18T04:19:29.479Z,956.37
2016-08-18T04:20:29.478Z,956.35
2016-08-18T04:21:29.497Z,956.34
2016-08-18T04:22:29.499Z,956.33
2016-08-18T04:23:29.508Z,956.31
2016-08-18T04:24:29.504Z,956.29
2016-08-18T04:25:29.511Z,956.27
2016-08-18T04:26:29.517Z,956.29
2016-08-18T04:27:29.531Z,956.28
2016-08-18T04:28:29.530Z,956.29
2016-08-18T04:29:29.536Z,956.28
2016-08-18T04:30:29.540Z,956.3
2016-08-18T04:31:29.554Z,956.3
2016-08-18T04:32:29.555Z,956.3
2016-08-18T04:33:29.568Z,956.28
2016-08-18T04:34:29.570Z,956.24
2016-08-18T04:35:29.584Z,956.22
2016-08-18T04:36:29.590Z,956.22
2016-08-18T04:37:29.596Z,956.2
2016-08-18T04:38:29.600Z,956.2
2016-08-18T04:39:29.604Z,956.17
2016-08-18T04:40:29.609Z,956.2
2016-08-18T04:41:29.614Z,956.22
2016-08-18T04:42:29.628Z,956.22
2016-08-18T04:43:29.635Z,956.21
2016-08-18T04:44:29.635Z,956.21
2016-08-18T04:45:29.651Z,956.25
2016-08-18T04:46:29.654Z,956.17
2016-08-18T04:47:29.663Z,956.19
2016-08-18T04:48:29.668Z,956.19
2016-08-18T04:49:29.666Z,956.22
2016-08-18T04:50:29.673Z,956.21
2016-08-18T04:51:29.678Z,956.23
2016-08-18T04:52:29.687Z,956.24
2016-08-18T04:53:29.700Z,956.23
2016-08-18T04:54:29.704Z,956.23
2016-08-18T04:55:29.714Z,956.26
2016-08-18T04:56:29.718Z,956.16
2016-08-18T04:57:29.719Z,956.22
2016-08-18T04:58:29.733Z,956.17
2016-08-18T04:59:29.731Z,956.18
2016-08-18T05:00:29.750Z,956.18
2016-08-18T05:01:29.752Z,956.17
2016-08-18T05:02:29.753Z,956.17
2016-08-18T05:03:29.759Z,956.19
2016-08-18T05:04:29.762Z,956.18
2016-08-18T05:05:29.774Z,956.25
2016-08-18T05:06:29.785Z,956.23
2016-08-18T05:07:29.790Z,956.24
2016-08-18T05:08:29.796Z,956.22
2016-08-18T05:09:29.794Z,956.18
2016-08-18T05:10:29.809Z,956.22
2016-08-18T05:11:29.817Z,956.26
2016-08-18T05:12:29.824Z,956.27
2016-08-18T05:13:29.822Z,956.25
2016-08-18T05:14:29.837Z,956.24
2016-08-18T05:15:29.842Z,956.23
2016-08-18T05:16:29.844Z,956.24
2016-08-18T05:17:29.857Z,956.23
2016-08-18T05:18:29.861Z,956.22
2016-08-18T05:19:29.860Z,956.25
2016-08-18T05:20:29.868Z,956.24
2016-08-18T05:21:29.872Z,956.27
2016-08-18T05:22:29.890Z,956.26
2016-08-18T05:23:29.889Z,956.25
2016-08-18T05:24:29.901Z,956.24
2016-08-18T05:25:29.908Z,956.25
2016-08-18T05:26:29.914Z,956.21
2016-08-18T05:27:29.922Z,956.24
2016-08-18T05:28:29.930Z,956.21
2016-08-18T05:29:29.936Z,956.25
2016-08-18T05:30:29.940Z,956.24
2016-08-18T05:31:29.948Z,956.25
2016-08-18T05:32:29.955Z,956.27
2016-08-18T05:33:29.952Z,956.29
2016-08-18T05:34:29.962Z,956.24
2016-08-18T05:35:29.969Z,956.28
2016-08-18T05:36:29.981Z,956.27
2016-08-18T05:37:29.983Z,956.27
2016-08-18T05:38:29.996Z,956.26
2016-08-18T05:39:30.004Z,956.27
2016-08-18T05:40:30.004Z,956.28
2016-08-18T05:41:30.010Z,956.31
2016-08-18T05:42:30.021Z,956.28
2016-08-18T05:43:30.030Z,956.3
2016-08-18T05:44:30.038Z,956.31
2016-08-18T05:45:30.136Z,956.26
2016-08-18T05:46:30.048Z,956.33
2016-08-18T05:47:30.057Z,956.29
2016-08-18T05:48:30.071Z,956.32
2016-08-18T05:49:30.063Z,956.25
2016-08-18T05:50:30.076Z,956.29
2016-08-18T05:51:30.075Z,956.27
2016-08-18T05:52:30.106Z,956.3
2016-08-18T05:53:30.091Z,956.28
2016-08-18T05:54:30.102Z,956.29
2016-08-18T05:55:30.105Z,956.3
2016-08-18T05:56:30.108Z,956.29
2016-08-18T05:57:30.118Z,956.33
2016-08-18T05:58:30.130Z,956.29
2016-08-18T05:59:30.133Z,956.23
2016-08-18T06:00:30.136Z,956.32
2016-08-18T06:01:30.143Z,956.31
2016-08-18T06:02:30.154Z,956.35
2016-08-18T06:03:30.165Z,956.35
2016-08-18T06:04:30.170Z,956.36
2016-08-18T06:05:30.170Z,956.34
2016-08-18T06:06:30.176Z,956.35
2016-08-18T06:07:30.185Z,956.34
2016-08-18T06:08:30.194Z,956.36
2016-08-18T06:09:30.205Z,956.34
2016-08-18T06:10:30.205Z,956.4
2016-08-18T06:11:30.212Z,956.4
2016-08-18T06:12:30.224Z,956.36
2016-08-18T06:13:30.232Z,956.35
2016-08-18T06:14:30.233Z,956.33
2016-08-18T06:15:30.244Z,956.28
2016-08-18T06:16:30.253Z,956.31
2016-08-18T06:17:30.249Z,956.31
2016-08-18T06:18:30.268Z,956.31
2016-08-18T06:19:30.299Z,956.33
2016-08-18T06:20:30.275Z,956.32
2016-08-18T06:21:30.283Z,956.32
2016-08-18T06:22:30.291Z,956.36
2016-08-18T06:23:30.296Z,956.34
2016-08-18T06:24:30.308Z,956.29
2016-08-18T06:25:30.700Z,956.3
2016-08-18T06:26:30.315Z,956.34
2016-08-18T06:27:30.329Z,956.33
2016-08-18T06:28:30.336Z,956.32
2016-08-18T06:29:30.340Z,956.31
2016-08-18T06:30:30.343Z,956.33
2016-08-18T06:31:30.352Z,956.34
2016-08-18T06:32:30.365Z,956.33
2016-08-18T06:33:30.366Z,956.34
2016-08-18T06:34:30.373Z,956.37
2016-08-18T06:35:30.385Z,956.37
2016-08-18T06:36:30.399Z,956.38
2016-08-18T06:37:30.404Z,956.33
2016-08-18T06:38:30.409Z,956.34
2016-08-18T06:39:30.409Z,956.32
2016-08-18T06:40:30.431Z,956.34
2016-08-18T06:41:30.427Z,956.36
2016-08-18T06:42:30.434Z,956.36
2016-08-18T06:43:30.436Z,956.33
2016-08-18T06:44:30.451Z,956.3
2016-08-18T06:45:30.452Z,956.27
2016-08-18T06:46:30.466Z,956.29
2016-08-18T06:47:30.477Z,956.33
2016-08-18T06:48:30.482Z,956.29
2016-08-18T06:49:30.489Z,956.28
2016-08-18T06:50:30.498Z,956.31
2016-08-18T06:51:30.500Z,956.29
2016-08-18T06:52:30.512Z,956.28
2016-08-18T06:53:30.514Z,956.32
2016-08-18T06:54:30.526Z,956.32
2016-08-18T06:55:30.528Z,956.32
2016-08-18T06:56:30.543Z,956.3
2016-08-18T06:57:30.544Z,956.35
2016-08-18T06:58:30.549Z,956.36
2016-08-18T06:59:30.558Z,956.37
2016-08-18T07:00:30.565Z,956.38
2016-08-18T07:01:30.572Z,956.37
2016-08-18T07:02:30.582Z,956.41
2016-08-18T07:03:30.587Z,956.38
2016-08-18T07:04:30.593Z,956.41
2016-08-18T07:05:30.608Z,956.4
2016-08-18T07:06:30.613Z,956.42
2016-08-18T07:07:30.625Z,956.43
2016-08-18T07:08:30.632Z,956.43
2016-08-18T07:09:30.639Z,956.44
2016-08-18T07:10:30.649Z,956.45
2016-08-18T07:11:30.648Z,956.47
2016-08-18T07:12:30.662Z,956.47
2016-08-18T07:13:30.665Z,956.48
2016-08-18T07:14:30.679Z,956.46
2016-08-18T07:15:30.684Z,956.49
2016-08-18T07:16:30.688Z,956.49
2016-08-18T07:17:30.699Z,956.47
2016-08-18T07:18:30.701Z,956.48
2016-08-18T07:19:30.719Z,956.48
2016-08-18T07:20:30.726Z,956.48
2016-08-18T07:21:30.731Z,956.46
2016-08-18T07:22:30.739Z,956.45
2016-08-18T07:23:30.745Z,956.45
2016-08-18T07:24:30.753Z,956.39
2016-08-18T07:25:30.755Z,956.42
2016-08-18T07:26:30.767Z,956.39
2016-08-18T07:27:30.774Z,956.39
2016-08-18T07:28:30.777Z,956.39
2016-08-18T07:29:30.789Z,956.33
2016-08-18T07:30:30.799Z,956.36
2016-08-18T07:31:30.809Z,956.37
2016-08-18T07:32:30.814Z,956.38
2016-08-18T07:33:30.823Z,956.37
2016-08-18T07:34:30.831Z,956.39
2016-08-18T07:35:30.827Z,956.4
2016-08-18T07:36:30.842Z,956.4
2016-08-18T07:37:30.849Z,956.44
2016-08-18T07:38:30.859Z,956.45
2016-08-18T07:39:30.859Z,956.44
2016-08-18T07:40:30.867Z,956.41
2016-08-18T07:41:30.873Z,956.43
2016-08-18T07:42:30.887Z,956.45
2016-08-18T07:43:30.892Z,956.42
2016-08-18T07:44:30.898Z,956.43
2016-08-18T07:45:30.904Z,956.47
2016-08-18T07:46:30.920Z,956.47
2016-08-18T07:47:30.920Z,956.49
2016-08-18T07:48:30.935Z,956.45
2016-08-18T07:49:30.944Z,956.47
2016-08-18T07:50:30.944Z,956.42
2016-08-18T07:51:30.959Z,956.45
2016-08-18T07:52:30.966Z,956.47
2016-08-18T07:53:30.965Z,956.49
2016-08-18T07:54:30.975Z,956.45
2016-08-18T07:55:30.978Z,956.44
2016-08-18T07:56:30.991Z,956.44
2016-08-18T07:57:31.003Z,956.49
2016-08-18T07:58:31.006Z,956.47
2016-08-18T07:59:31.018Z,956.51
2016-08-18T08:00:31.019Z,956.5
2016-08-18T08:01:31.036Z,956.51
2016-08-18T08:02:31.041Z,956.5
2016-08-18T08:03:31.051Z,956.5
2016-08-18T08:04:31.058Z,956.46
2016-08-18T08:05:31.060Z,956.5
2016-08-18T08:06:31.072Z,956.45
2016-08-18T08:07:31.073Z,956.46
2016-08-18T08:08:31.090Z,956.48
2016-08-18T08:09:31.088Z,956.47
2016-08-18T08:10:31.104Z,956.49
2016-08-18T08:11:31.111Z,956.47
2016-08-18T08:12:31.114Z,956.51
2016-08-18T08:13:31.144Z,956.51
2016-08-18T08:14:31.135Z,956.54
2016-08-18T08:15:31.137Z,956.51
2016-08-18T08:16:31.152Z,956.49
2016-08-18T08:17:31.156Z,956.47
2016-08-18T08:18:31.163Z,956.49
2016-08-18T08:19:31.177Z,956.5
2016-08-18T08:20:31.177Z,956.5
2016-08-18T08:21:31.214Z,956.5
2016-08-18T08:22:31.202Z,956.46
2016-08-18T08:23:31.260Z,956.48
2016-08-18T08:24:31.209Z,956.51
2016-08-18T08:25:31.225Z,956.52
2016-08-18T08:26:31.233Z,956.47
2016-08-18T08:27:31.238Z,956.48
2016-08-18T08:28:31.241Z,956.47
2016-08-18T08:29:31.257Z,956.46
2016-08-18T08:30:31.258Z,956.46
2016-08-18T08:31:31.271Z,956.46
2016-08-18T08:32:31.293Z,956.5
2016-08-18T08:33:31.281Z,956.49
2016-08-18T08:34:31.325Z,956.46
2016-08-18T08:35:31.632Z,956.46
2016-08-18T08:36:32.043Z,956.42
2016-08-18T08:37:31.313Z,956.43
2016-08-18T08:38:31.542Z,956.43
2016-08-18T08:39:31.330Z,956.42
2016-08-18T08:40:33.879Z,956.39
2016-08-18T08:41:31.473Z,956.41
2016-08-18T08:42:31.358Z,956.43
2016-08-18T08:43:31.427Z,956.43
2016-08-18T08:44:31.858Z,956.43
2016-08-18T08:45:31.860Z,956.47
2016-08-18T08:46:31.676Z,956.45
2016-08-18T08:47:31.407Z,956.44
2016-08-18T08:48:31.405Z,956.42
2016-08-18T08:49:31.414Z,956.47
2016-08-18T08:50:31.414Z,956.44
2016-08-18T08:51:31.427Z,956.47
2016-08-18T08:52:31.439Z,956.45
2016-08-18T08:53:31.445Z,956.5
2016-08-18T08:54:31.454Z,956.52
2016-08-18T08:55:31.454Z,956.51
2016-08-18T08:56:31.466Z,956.47
2016-08-18T08:57:31.476Z,956.49
2016-08-18T08:58:31.484Z,956.5
2016-08-18T08:59:31.485Z,956.47
2016-08-18T09:00:31.502Z,956.44
2016-08-18T09:01:31.503Z,956.48
2016-08-18T09:02:31.513Z,956.47
2016-08-18T09:03:31.611Z,956.49
2016-08-18T09:04:31.528Z,956.46
2016-08-18T09:05:31.542Z,956.45
2016-08-18T09:06:31.552Z,956.43
2016-08-18T09:07:31.559Z,956.48
2016-08-18T09:08:31.565Z,956.44
2016-08-18T09:09:31.566Z,956.45
2016-08-18T09:10:31.582Z,956.44
2016-08-18T09:11:31.590Z,956.49
2016-08-18T09:12:31.599Z,956.46
2016-08-18T09:13:31.601Z,956.48
2016-08-18T09:14:31.607Z,956.47
2016-08-18T09:15:31.622Z,956.47
2016-08-18T09:16:31.624Z,956.46
2016-08-18T09:17:31.635Z,956.47
2016-08-18T09:18:31.642Z,956.47
2016-08-18T09:19:31.649Z,956.47
2016-08-18T09:20:31.683Z,956.45
2016-08-18T09:21:31.675Z,956.44
2016-08-18T09:22:31.676Z,956.41
2016-08-18T09:23:31.689Z,956.43
2016-08-18T09:24:31.692Z,956.41
2016-08-18T09:25:31.700Z,956.37
2016-08-18T09:26:31.705Z,956.41
2016-08-18T09:27:31.716Z,956.4
2016-08-18T09:28:31.728Z,956.41
2016-08-18T09:29:31.732Z,956.44
2016-08-18T09:30:31.743Z,956.43
2016-08-18T09:31:31.754Z,956.46
2016-08-18T09:32:31.795Z,956.46
2016-08-18T09:33:31.774Z,956.45
2016-08-18T09:34:31.776Z,956.51
2016-08-18T09:35:32.172Z,956.5
2016-08-18T09:36:31.789Z,956.45
2016-08-18T09:37:31.796Z,956.49
2016-08-18T09:38:31.811Z,956.48
2016-08-18T09:39:31.815Z,956.48
2016-08-18T09:40:31.821Z,956.5
2016-08-18T09:41:31.830Z,956.45
2016-08-18T09:42:31.846Z,956.48
2016-08-18T09:43:31.858Z,956.47
2016-08-18T09:44:31.859Z,956.48
2016-08-18T09:45:31.861Z,956.5
2016-08-18T09:46:31.873Z,956.46
2016-08-18T09:47:31.886Z,956.46
2016-08-18T09:48:31.891Z,956.48
2016-08-18T09:49:31.901Z,956.49
2016-08-18T09:50:31.910Z,956.53
2016-08-18T09:51:31.925Z,956.52
2016-08-18T09:52:31.919Z,956.48
2016-08-18T09:53:31.934Z,956.47
2016-08-18T09:54:31.936Z,956.44
2016-08-18T09:55:31.948Z,956.45
2016-08-18T09:56:31.960Z,956.42
2016-08-18T09:57:31.972Z,956.41
2016-08-18T09:58:31.972Z,956.4
2016-08-18T09:59:31.986Z,956.39
2016-08-18T10:00:31.995Z,956.39
2016-08-18T10:01:32.068Z,956.4
2016-08-18T10:02:32.011Z,956.36
2016-08-18T10:03:32.012Z,956.34
2016-08-18T10:04:32.070Z,956.32
2016-08-18T10:05:32.035Z,956.34
2016-08-18T10:06:32.036Z,956.33
2016-08-18T10:07:32.046Z,956.32
2016-08-18T10:08:32.053Z,956.31
2016-08-18T10:09:32.063Z,956.25
2016-08-18T10:10:32.071Z,956.31
2016-08-18T10:11:32.087Z,956.34
2016-08-18T10:12:32.095Z,956.31
2016-08-18T10:13:32.107Z,956.31
2016-08-18T10:14:32.113Z,956.27
2016-08-18T10:15:32.292Z,956.32
2016-08-18T10:16:32.128Z,956.33
2016-08-18T10:17:32.129Z,956.35
2016-08-18T10:18:32.144Z,956.3
2016-08-18T10:19:32.150Z,956.32
2016-08-18T10:20:32.161Z,956.31
2016-08-18T10:21:32.164Z,956.36
2016-08-18T10:22:32.170Z,956.28
2016-08-18T10:23:32.185Z,956.28
2016-08-18T10:24:32.189Z,956.28
2016-08-18T10:25:32.224Z,956.29
2016-08-18T10:26:32.211Z,956.26
2016-08-18T10:27:32.223Z,956.23
2016-08-18T10:28:32.230Z,956.22
2016-08-18T10:29:32.232Z,956.2
2016-08-18T10:30:32.243Z,956.22
2016-08-18T10:31:32.255Z,956.19
2016-08-18T10:32:32.271Z,956.19
2016-08-18T10:33:32.274Z,956.16
2016-08-18T10:34:32.276Z,956.16
2016-08-18T10:35:32.282Z,956.19
2016-08-18T10:36:32.296Z,956.12
2016-08-18T10:37:32.299Z,956.15
2016-08-18T10:38:32.317Z,956.2
2016-08-18T10:39:32.325Z,956.2
2016-08-18T10:40:32.325Z,956.18
2016-08-18T10:41:32.333Z,956.14
2016-08-18T10:42:32.337Z,956.12
2016-08-18T10:43:32.365Z,956.09
2016-08-18T10:44:32.367Z,956.04
2016-08-18T10:45:32.370Z,956.07
2016-08-18T10:46:32.385Z,956.05
2016-08-18T10:47:32.387Z,956.08
2016-08-18T10:48:32.392Z,956.04
2016-08-18T10:49:32.403Z,955.99
2016-08-18T10:50:32.420Z,956.02
2016-08-18T10:51:32.429Z,956.11
2016-08-18T10:52:32.435Z,956.03
2016-08-18T10:53:32.436Z,956.05
2016-08-18T10:54:32.450Z,956.04
2016-08-18T10:55:32.455Z,956.04
2016-08-18T10:56:32.468Z,956.03
2016-08-18T10:57:32.471Z,956.03
2016-08-18T10:58:32.481Z,956.03
2016-08-18T10:59:32.491Z,956
2016-08-18T11:00:32.502Z,955.98
2016-08-18T11:01:32.515Z,955.96
2016-08-18T11:02:32.515Z,955.97
2016-08-18T11:03:32.528Z,955.92
2016-08-18T11:04:32.532Z,955.88
2016-08-18T11:05:32.546Z,955.81
2016-08-18T11:06:32.548Z,955.8
2016-08-18T11:07:32.556Z,955.8
2016-08-18T11:08:32.574Z,955.87
2016-08-18T11:09:32.574Z,955.87
2016-08-18T11:10:32.589Z,955.86
2016-08-18T11:11:32.597Z,955.88
2016-08-18T11:12:32.605Z,955.91
2016-08-18T11:13:32.616Z,955.88
2016-08-18T11:14:32.633Z,955.86
2016-08-18T11:15:32.627Z,955.82
2016-08-18T11:16:32.632Z,955.81
2016-08-18T11:17:32.646Z,955.83
2016-08-18T11:18:32.651Z,955.81
2016-08-18T11:19:32.665Z,955.86
2016-08-18T11:20:32.671Z,955.82
2016-08-18T11:21:32.688Z,955.84
2016-08-18T11:22:32.696Z,955.84
2016-08-18T11:23:32.702Z,955.79
2016-08-18T11:24:32.710Z,955.78
2016-08-18T11:25:32.715Z,955.77
2016-08-18T11:26:32.725Z,955.78
2016-08-18T11:27:32.733Z,955.8
2016-08-18T11:28:32.749Z,955.83
2016-08-18T11:29:32.759Z,955.82
2016-08-18T11:30:32.760Z,955.85
2016-08-18T11:31:32.772Z,955.83
2016-08-18T11:32:32.784Z,955.8
2016-08-18T11:33:32.785Z,955.76
2016-08-18T11:34:32.802Z,955.75
2016-08-18T11:35:32.970Z,955.75
2016-08-18T11:36:32.815Z,955.75
2016-08-18T11:37:32.831Z,955.76
2016-08-18T11:38:32.838Z,955.83
2016-08-18T11:39:32.845Z,955.89
2016-08-18T11:40:32.863Z,955.96
2016-08-18T11:41:32.859Z,955.98
2016-08-18T11:42:32.875Z,956.01
2016-08-18T11:43:32.877Z,956.05
2016-08-18T11:44:32.902Z,956.12
2016-08-18T11:45:32.893Z,956.26
2016-08-18T11:46:32.908Z,956.34
2016-08-18T11:47:32.912Z,956.52
2016-08-18T11:48:32.921Z,956.23
2016-08-18T11:49:32.929Z,956
2016-08-18T11:50:32.939Z,956.01
2016-08-18T11:51:32.954Z,955.96
2016-08-18T11:52:32.962Z,956.02
2016-08-18T11:53:32.965Z,956.01
2016-08-18T11:54:32.971Z,956.05
2016-08-18T11:55:32.990Z,956.09
2016-08-18T11:56:32.997Z,956.1
2016-08-18T12:11:59.535Z,956.03
2016-08-18T12:12:59.548Z,956.05
2016-08-18T12:13:59.555Z,956.06
2016-08-18T12:15:00.170Z,956.1
2016-08-18T12:16:00.172Z,956.2
2016-08-18T12:17:00.188Z,956.3
2016-08-18T12:18:00.197Z,956.41
2016-08-18T12:19:00.208Z,956.45
2016-08-18T12:20:00.214Z,956.44
2016-08-18T12:21:00.215Z,956.45
2016-08-18T12:22:00.223Z,956.42
2016-08-18T12:23:00.238Z,956.35
2016-08-18T12:24:00.241Z,956.32
2016-08-18T12:25:00.256Z,956.3
2016-08-18T12:26:00.261Z,956.3
2016-08-18T12:27:00.270Z,956.16
2016-08-18T12:28:00.282Z,956.04
2016-08-18T12:29:00.287Z,956.11
2016-08-18T12:30:00.292Z,956.09
2016-08-18T12:31:00.298Z,956.01
2016-08-18T12:32:00.314Z,955.99
2016-08-18T12:33:00.324Z,955.97
2016-08-18T12:34:00.332Z,955.92
2016-08-18T12:35:00.348Z,955.92
2016-08-18T12:36:00.346Z,955.93
2016-08-18T12:37:00.353Z,955.93
2016-08-18T12:38:00.354Z,955.94
2016-08-18T12:39:00.363Z,955.91
2016-08-18T12:40:00.370Z,955.96
2016-08-18T12:41:00.385Z,955.92
2016-08-18T12:42:00.384Z,955.92
2016-08-18T12:43:00.396Z,955.9
2016-08-18T12:44:00.409Z,955.91
2016-08-18T12:45:00.412Z,955.88
2016-08-18T12:46:00.667Z,955.92